Weather at Istanbul Sabiha Gökçen International Airport

Public forecast

Using degrees Celsius for public forecast. Weather courtesy of forecast.io.

Current aviation weather report (METAR) for Istanbul Sabiha Gökçen International Airport

Report is more than 6 hours old.

2022/11/14 15:20 (retrieved 2 years ago)

LTFJ 141520Z 06009KT 9999 BKN030 14/09 Q1023 NOSIG RMK RWY24 06007KT 030V090

Aviation forecast (TAF) for Istanbul Sabiha Gökçen International Airport

Forecast is more than 12 hours old.

2023/02/22 18:03 (retrieved 1 year ago)

TAF LTFJ 221640Z 2218/2318 VRB02KT CAVOK BECMG 2303/2306 SCT035 BKN080 BECMG 2308/2311 04012KT BECMG 2312/2315 CAVOK PROB30 TEMPO 2315/2318 05015G25KT